Time;durP1;ratioP1;P1;durP2;ratioP2;P2;SDS_P1;SDS_P2;PMS_P1;PMS_P2;Temp;Humidity;BMP_temperature;BMP_pressure;BME280_temperature;BME280_humidity;BME280_pressure;Samples;Min_cycle;Max_cycle;Signal;HPM_P1;HPM_P2
2023/04/25 00:00:56;;;;;;;11.27;4.90;;;;;;;;;;5047777;28;20028;-70
2023/04/25 00:03:22;;;;;;;9.63;4.55;;;;;;;;;;5046576;28;20033;-70
2023/04/25 00:05:47;;;;;;;14.07;5.07;;;;;;;;;;5044897;28;20052;-70
2023/04/25 00:08:13;;;;;;;13.35;5.10;;;;;;;;;;5048508;28;20036;-70
2023/04/25 00:10:38;;;;;;;13.35;5.57;;;;;;;;;;5044155;28;20037;-70
2023/04/25 00:13:04;;;;;;;12.95;5.13;;;;;;;;;;5046530;28;20036;-70
2023/04/25 00:15:32;;;;;;;13.93;5.03;;;;;;;;;;5046146;28;20094;-70
2023/04/25 00:17:57;;;;;;;18.15;5.63;;;;;;;;;;5046295;28;20036;-70
2023/04/25 00:20:24;;;;;;;16.15;5.35;;;;;;;;;;5045162;28;20425;-70
2023/04/25 00:22:50;;;;;;;11.40;4.97;;;;;;;;;;5046395;28;20049;-70
2023/04/25 00:25:16;;;;;;;12.77;5.10;;;;;;;;;;5046380;28;20078;-70
2023/04/25 00:27:41;;;;;;;14.57;5.07;;;;;;;;;;5045917;28;20104;-70
2023/04/25 00:30:07;;;;;;;12.50;5.00;;;;;;;;;;5046778;28;20071;-70
2023/04/25 00:32:33;;;;;;;13.68;5.22;;;;;;;;;;5044523;28;20532;-70
2023/04/25 00:34:58;;;;;;;12.25;5.53;;;;;;;;;;5052149;28;20143;-70
2023/04/25 00:37:24;;;;;;;15.10;5.78;;;;;;;;;;5067091;28;20029;-70
2023/04/25 00:39:50;;;;;;;13.55;4.47;;;;;;;;;;5070796;28;20036;-70
2023/04/25 00:42:16;;;;;;;9.13;4.25;;;;;;;;;;5076752;28;20078;-71
2023/04/25 00:44:43;;;;;;;11.43;4.75;;;;;;;;;;5072142;28;20036;-71
2023/04/25 00:47:08;;;;;;;13.63;4.80;;;;;;;;;;5066244;28;20067;-70
2023/04/25 00:49:34;;;;;;;17.15;4.43;;;;;;;;;;5054718;28;20521;-70
2023/04/25 00:52:00;;;;;;;10.77;3.95;;;;;;;;;;5033873;28;20033;-70
2023/04/25 00:54:25;;;;;;;13.30;4.28;;;;;;;;;;5054232;28;20032;-71
2023/04/25 00:56:51;;;;;;;12.57;3.85;;;;;;;;;;5040950;28;20037;-70
2023/04/25 00:59:17;;;;;;;20.08;4.30;;;;;;;;;;5025084;28;20045;-71
2023/04/25 01:01:43;;;;;;;10.10;4.05;;;;;;;;;;5025732;28;20042;-70
2023/04/25 01:04:08;;;;;;;9.23;3.40;;;;;;;;;;5025230;28;20060;-70
2023/04/25 01:06:35;;;;;;;10.55;3.88;;;;;;;;;;5025935;28;20829;-69
2023/04/25 01:09:02;;;;;;;9.75;3.70;;;;;;;;;;5025886;28;20040;-70
2023/04/25 01:11:27;;;;;;;9.85;3.38;;;;;;;;;;5033859;28;20033;-70
2023/04/25 01:13:53;;;;;;;9.93;3.58;;;;;;;;;;5039505;28;20029;-70
2023/04/25 01:16:18;;;;;;;12.23;3.92;;;;;;;;;;5005770;28;1123131;-70
2023/04/25 01:18:45;;;;;;;18.73;4.03;;;;;;;;;;5046234;28;20029;-70
2023/04/25 01:21:12;;;;;;;10.90;3.85;;;;;;;;;;5044183;28;20028;-70
2023/04/25 01:23:41;;;;;;;9.23;4.03;;;;;;;;;;5041002;28;20049;-70
2023/04/25 01:26:10;;;;;;;12.65;4.30;;;;;;;;;;5041826;28;20123;-70
2023/04/25 01:28:36;;;;;;;9.60;3.35;;;;;;;;;;5045300;28;20112;-70
2023/04/25 01:31:01;;;;;;;9.85;3.28;;;;;;;;;;5045664;28;20108;-70
2023/04/25 01:33:27;;;;;;;14.70;3.85;;;;;;;;;;5047013;28;20021;-70
2023/04/25 01:35:52;;;;;;;11.60;4.53;;;;;;;;;;5059483;28;20032;-70
2023/04/25 01:38:18;;;;;;;12.90;3.95;;;;;;;;;;5044161;28;20418;-70
2023/04/25 01:40:45;;;;;;;10.90;4.25;;;;;;;;;;5044548;28;20033;-70
2023/04/25 01:43:11;;;;;;;11.68;3.80;;;;;;;;;;5045874;28;20877;-70
2023/04/25 01:45:40;;;;;;;15.20;4.22;;;;;;;;;;5045481;28;20086;-70
2023/04/25 01:48:11;;;;;;;13.57;4.35;;;;;;;;;;5046854;28;20020;-70
2023/04/25 01:50:37;;;;;;;12.73;4.25;;;;;;;;;;5045889;28;20037;-70
2023/04/25 01:53:04;;;;;;;15.57;4.35;;;;;;;;;;5045977;28;20129;-70
2023/04/25 01:55:29;;;;;;;16.02;5.53;;;;;;;;;;5046080;28;20033;-70
2023/04/25 01:57:55;;;;;;;11.93;3.88;;;;;;;;;;5045023;28;20029;-70
2023/04/25 02:00:20;;;;;;;16.40;4.63;;;;;;;;;;5044097;28;20517;-70
2023/04/25 02:02:46;;;;;;;17.30;4.45;;;;;;;;;;5046593;28;20036;-70
2023/04/25 02:05:11;;;;;;;12.70;4.10;;;;;;;;;;5055923;28;20025;-71
2023/04/25 02:07:37;;;;;;;15.57;3.70;;;;;;;;;;5050104;28;20021;-70
2023/04/25 02:10:03;;;;;;;16.10;4.25;;;;;;;;;;5078106;28;20112;-70
2023/04/25 02:12:28;;;;;;;12.13;3.65;;;;;;;;;;5046630;28;20104;-70
2023/04/25 02:14:54;;;;;;;13.23;3.85;;;;;;;;;;5049499;28;20060;-70
2023/04/25 02:17:21;;;;;;;14.10;4.72;;;;;;;;;;5049986;28;20574;-70
2023/04/25 02:19:47;;;;;;;20.33;6.30;;;;;;;;;;5049302;28;20032;-70
2023/04/25 02:22:12;;;;;;;16.90;4.60;;;;;;;;;;5046990;28;20025;-70
2023/04/25 02:24:38;;;;;;;17.13;4.20;;;;;;;;;;5048958;28;20031;-70
2023/04/25 02:27:04;;;;;;;19.08;4.95;;;;;;;;;;5049712;28;20017;-70
2023/04/25 02:29:30;;;;;;;15.50;4.93;;;;;;;;;;5049263;28;20028;-70
2023/04/25 02:31:55;;;;;;;15.30;4.30;;;;;;;;;;5049161;28;20095;-70
2023/04/25 02:34:21;;;;;;;13.80;4.05;;;;;;;;;;5049627;28;20063;-70
2023/04/25 02:36:47;;;;;;;15.93;4.30;;;;;;;;;;5069314;28;20086;-70
2023/04/25 02:39:13;;;;;;;10.57;3.85;;;;;;;;;;5069403;28;20021;-70
2023/04/25 02:41:38;;;;;;;13.50;3.35;;;;;;;;;;5069221;28;20429;-70
2023/04/25 02:44:04;;;;;;;16.27;4.35;;;;;;;;;;5068675;28;20098;-70
2023/04/25 02:46:29;;;;;;;13.23;4.28;;;;;;;;;;5069355;28;20025;-70
2023/04/25 02:48:54;;;;;;;13.13;4.53;;;;;;;;;;5069123;28;20024;-70
2023/04/25 02:51:20;;;;;;;12.63;3.45;;;;;;;;;;5067660;28;20489;-70
2023/04/25 02:53:45;;;;;;;9.90;3.30;;;;;;;;;;5068384;28;20116;-70
2023/04/25 02:56:10;;;;;;;11.80;3.38;;;;;;;;;;5068515;28;20028;-70
2023/04/25 02:58:36;;;;;;;13.38;3.65;;;;;;;;;;5069411;28;20116;-71
2023/04/25 03:01:01;;;;;;;11.93;3.33;;;;;;;;;;5068617;28;20056;-70
2023/04/25 03:03:27;;;;;;;9.45;3.67;;;;;;;;;;5068216;28;20016;-70
2023/04/25 03:05:52;;;;;;;11.77;3.22;;;;;;;;;;5068473;28;20035;-70
2023/04/25 03:08:18;;;;;;;8.10;3.58;;;;;;;;;;5068977;28;20042;-70
2023/04/25 03:10:44;;;;;;;13.60;3.28;;;;;;;;;;5068304;28;20567;-70
2023/04/25 03:13:10;;;;;;;14.88;3.60;;;;;;;;;;5069526;28;20040;-70
2023/04/25 03:15:36;;;;;;;25.00;4.38;;;;;;;;;;5062766;28;20041;-70
2023/04/25 03:18:02;;;;;;;12.25;3.50;;;;;;;;;;5048808;28;20478;-71
2023/04/25 03:20:27;;;;;;;13.10;3.65;;;;;;;;;;5047255;28;20041;-70
2023/04/25 03:22:53;;;;;;;12.38;3.72;;;;;;;;;;5048967;28;20440;-71
2023/04/25 03:25:18;;;;;;;12.50;3.42;;;;;;;;;;5050296;28;20080;-70
2023/04/25 03:27:44;;;;;;;11.07;3.65;;;;;;;;;;5056814;28;20044;-70
2023/04/25 03:30:09;;;;;;;11.48;3.75;;;;;;;;;;5055401;28;20112;-70
2023/04/25 03:32:35;;;;;;;11.50;3.20;;;;;;;;;;5048833;28;20033;-71
2023/04/25 03:35:00;;;;;;;10.15;3.05;;;;;;;;;;5053832;28;20029;-70
2023/04/25 03:37:26;;;;;;;10.73;3.45;;;;;;;;;;5065012;28;20060;-70
2023/04/25 03:39:51;;;;;;;16.08;3.75;;;;;;;;;;5047665;28;20025;-70
2023/04/25 03:42:17;;;;;;;14.40;3.75;;;;;;;;;;5047428;28;20042;-71
2023/04/25 03:44:43;;;;;;;15.02;3.45;;;;;;;;;;5047714;28;20036;-70
2023/04/25 03:47:08;;;;;;;12.60;3.38;;;;;;;;;;5048083;28;20037;-70
2023/04/25 03:49:34;;;;;;;13.32;3.55;;;;;;;;;;5046369;28;20025;-70
2023/04/25 03:52:00;;;;;;;11.55;3.65;;;;;;;;;;5041246;28;20033;-70
2023/04/25 03:54:25;;;;;;;10.77;3.42;;;;;;;;;;5044193;28;20028;-70
2023/04/25 03:56:50;;;;;;;14.00;3.55;;;;;;;;;;5046841;28;20083;-70
2023/04/25 03:59:16;;;;;;;9.93;3.20;;;;;;;;;;5047263;28;20514;-70
2023/04/25 04:01:41;;;;;;;12.98;3.33;;;;;;;;;;5047976;28;20061;-70
2023/04/25 04:04:06;;;;;;;10.90;3.40;;;;;;;;;;5047644;28;20033;-70
2023/04/25 04:06:32;;;;;;;13.18;3.47;;;;;;;;;;5047907;28;20050;-71
2023/04/25 04:08:57;;;;;;;16.52;4.20;;;;;;;;;;5047468;28;20037;-70
2023/04/25 04:11:23;;;;;;;9.50;3.88;;;;;;;;;;5048085;28;20033;-70
2023/04/25 04:13:48;;;;;;;20.58;4.18;;;;;;;;;;5047518;28;20075;-70
2023/04/25 04:16:13;;;;;;;11.73;3.45;;;;;;;;;;5047188;28;20044;-70
2023/04/25 04:18:39;;;;;;;13.10;4.63;;;;;;;;;;5046355;28;20033;-70
2023/04/25 04:21:04;;;;;;;12.43;3.75;;;;;;;;;;5047401;28;20047;-70
2023/04/25 04:23:30;;;;;;;19.02;3.95;;;;;;;;;;5047601;28;20029;-70
2023/04/25 04:25:56;;;;;;;14.77;3.75;;;;;;;;;;5047358;28;20029;-70
2023/04/25 04:28:22;;;;;;;18.55;4.55;;;;;;;;;;5046749;28;20021;-70
2023/04/25 04:30:47;;;;;;;12.95;3.60;;;;;;;;;;5047937;28;20025;-70
2023/04/25 04:33:14;;;;;;;12.57;4.10;;;;;;;;;;5045958;28;20547;-70
2023/04/25 04:35:41;;;;;;;15.85;3.95;;;;;;;;;;5046323;28;20033;-70
2023/04/25 04:38:07;;;;;;;14.43;3.80;;;;;;;;;;5046998;28;20238;-70
2023/04/25 04:40:32;;;;;;;11.70;3.22;;;;;;;;;;5043983;28;20456;-70
2023/04/25 04:42:57;;;;;;;13.25;4.00;;;;;;;;;;5047451;28;20100;-70
2023/04/25 04:45:23;;;;;;;10.70;3.70;;;;;;;;;;5048182;28;20016;-70
2023/04/25 04:47:49;;;;;;;14.15;3.53;;;;;;;;;;5048478;28;20037;-70
2023/04/25 04:50:15;;;;;;;9.50;3.67;;;;;;;;;;5054600;28;20047;-71
2023/04/25 04:52:41;;;;;;;10.18;3.45;;;;;;;;;;5053559;28;20033;-70
2023/04/25 04:55:07;;;;;;;13.30;4.05;;;;;;;;;;5043160;28;20112;-71
2023/04/25 04:57:34;;;;;;;8.77;3.00;;;;;;;;;;5047416;28;20110;-71
2023/04/25 05:00:00;;;;;;;7.28;3.22;;;;;;;;;;5046812;28;20123;-70
2023/04/25 05:02:25;;;;;;;9.50;3.50;;;;;;;;;;5047120;28;20112;-70
2023/04/25 05:04:51;;;;;;;9.25;3.72;;;;;;;;;;5077522;28;20123;-70
2023/04/25 05:07:17;;;;;;;11.10;3.65;;;;;;;;;;5039939;28;20095;-70
2023/04/25 05:09:43;;;;;;;11.18;3.33;;;;;;;;;;5046055;28;20067;-70
2023/04/25 05:12:08;;;;;;;7.25;3.10;;;;;;;;;;5046983;28;20425;-70
2023/04/25 05:14:34;;;;;;;11.35;3.80;;;;;;;;;;5032696;28;20088;-70
2023/04/25 05:16:59;;;;;;;10.40;3.13;;;;;;;;;;5042569;28;20041;-70
2023/04/25 05:19:25;;;;;;;21.17;4.00;;;;;;;;;;5040974;28;20037;-70
2023/04/25 05:21:50;;;;;;;9.57;3.03;;;;;;;;;;5037170;28;20036;-70
2023/04/25 05:24:15;;;;;;;8.73;3.10;;;;;;;;;;5038123;28;20143;-70
2023/04/25 05:26:41;;;;;;;9.02;3.03;;;;;;;;;;5045730;28;20033;-70
2023/04/25 05:29:06;;;;;;;9.50;3.35;;;;;;;;;;5045908;28;20127;-70
2023/04/25 05:31:32;;;;;;;13.60;2.63;;;;;;;;;;5047787;28;20029;-70
2023/04/25 05:33:58;;;;;;;12.07;3.40;;;;;;;;;;5035084;28;20108;-70
2023/04/25 05:36:23;;;;;;;16.30;3.58;;;;;;;;;;5060999;28;20127;-70
2023/04/25 05:38:48;;;;;;;9.48;3.13;;;;;;;;;;5064270;28;20626;-70
2023/04/25 05:41:14;;;;;;;11.40;3.08;;;;;;;;;;5065570;28;20037;-70
2023/04/25 05:43:44;;;;;;;11.50;2.70;;;;;;;;;;5062633;28;20040;-70
2023/04/25 05:46:11;;;;;;;9.55;3.05;;;;;;;;;;5042151;28;20039;-71
2023/04/25 05:48:37;;;;;;;12.43;3.05;;;;;;;;;;5077973;28;20154;-70
2023/04/25 05:51:02;;;;;;;11.90;3.15;;;;;;;;;;5043783;28;20413;-71
2023/04/25 05:53:28;;;;;;;9.38;2.63;;;;;;;;;;5075173;28;20036;-70
2023/04/25 05:55:53;;;;;;;9.75;3.58;;;;;;;;;;5045095;28;20561;-70
2023/04/25 05:58:19;;;;;;;7.15;2.70;;;;;;;;;;5045927;28;20036;-71
2023/04/25 06:00:44;;;;;;;13.77;2.97;;;;;;;;;;5045090;28;20017;-70
2023/04/25 06:03:10;;;;;;;13.80;3.17;;;;;;;;;;5046184;28;20383;-70
2023/04/25 06:05:36;;;;;;;10.00;3.17;;;;;;;;;;5041046;28;20033;-70
2023/04/25 06:08:01;;;;;;;13.00;3.30;;;;;;;;;;5042799;28;20029;-70
2023/04/25 06:10:26;;;;;;;12.98;3.47;;;;;;;;;;5042928;28;20029;-70
2023/04/25 06:12:52;;;;;;;10.93;3.78;;;;;;;;;;5052575;28;20021;-70
2023/04/25 06:15:17;;;;;;;14.85;3.92;;;;;;;;;;5053982;28;20040;-70
2023/04/25 06:17:43;;;;;;;9.77;3.55;;;;;;;;;;5042297;28;20121;-70
2023/04/25 06:20:08;;;;;;;15.77;3.67;;;;;;;;;;5043440;28;20025;-71
2023/04/25 06:22:34;;;;;;;8.68;3.38;;;;;;;;;;5045713;28;20033;-71
2023/04/25 06:25:00;;;;;;;12.50;3.45;;;;;;;;;;5044829;28;20056;-71
2023/04/25 06:27:25;;;;;;;10.27;3.40;;;;;;;;;;5045990;28;20021;-72
2023/04/25 06:29:51;;;;;;;12.88;3.47;;;;;;;;;;5044095;28;20048;-71
2023/04/25 06:32:17;;;;;;;9.98;3.28;;;;;;;;;;5064922;28;20060;-70
2023/04/25 06:34:43;;;;;;;9.82;3.22;;;;;;;;;;5037670;28;20036;-71
2023/04/25 06:37:09;;;;;;;21.02;4.30;;;;;;;;;;5034946;28;20106;-70
2023/04/25 06:39:34;;;;;;;10.15;3.90;;;;;;;;;;5040183;28;20557;-70
2023/04/25 06:42:00;;;;;;;9.27;2.92;;;;;;;;;;5039863;28;20017;-70
2023/04/25 06:44:26;;;;;;;9.50;2.67;;;;;;;;;;5032156;28;20026;-71
2023/04/25 06:46:51;;;;;;;13.88;3.22;;;;;;;;;;5024693;28;20120;-70
2023/04/25 06:49:17;;;;;;;9.38;2.85;;;;;;;;;;5025376;28;20124;-71
2023/04/25 06:51:42;;;;;;;9.68;2.90;;;;;;;;;;5025231;28;20025;-70
2023/04/25 06:54:07;;;;;;;8.35;3.17;;;;;;;;;;5025427;28;20045;-71
2023/04/25 06:56:33;;;;;;;9.70;2.95;;;;;;;;;;5037098;28;20075;-71
2023/04/25 06:59:00;;;;;;;13.02;3.60;;;;;;;;;;5045148;28;20087;-71
2023/04/25 07:01:25;;;;;;;13.63;3.60;;;;;;;;;;5042265;28;20056;-70
2023/04/25 07:03:51;;;;;;;16.42;3.55;;;;;;;;;;5026047;28;20029;-70
2023/04/25 07:06:16;;;;;;;8.57;2.63;;;;;;;;;;5048363;28;20017;-70
2023/04/25 07:08:41;;;;;;;13.30;3.58;;;;;;;;;;5047752;28;20041;-71
2023/04/25 07:11:07;;;;;;;15.07;4.38;;;;;;;;;;5045432;28;20033;-70
2023/04/25 07:13:32;;;;;;;8.57;3.00;;;;;;;;;;5047632;28;20453;-71
2023/04/25 07:15:57;;;;;;;12.93;2.63;;;;;;;;;;5045726;28;20036;-71
2023/04/25 07:18:23;;;;;;;17.45;4.10;;;;;;;;;;5045495;28;20024;-71
2023/04/25 07:20:48;;;;;;;16.95;2.58;;;;;;;;;;5045946;28;20033;-70
2023/04/25 07:23:14;;;;;;;13.38;2.92;;;;;;;;;;5048947;28;20520;-71
2023/04/25 07:25:39;;;;;;;13.73;3.03;;;;;;;;;;5047372;28;20037;-71
2023/04/25 07:28:05;;;;;;;11.10;2.80;;;;;;;;;;5048611;28;20056;-70
2023/04/25 07:30:30;;;;;;;7.10;2.95;;;;;;;;;;5048983;28;20037;-71
2023/04/25 07:32:56;;;;;;;17.20;3.67;;;;;;;;;;5050042;28;20025;-70
2023/04/25 07:35:21;;;;;;;10.90;3.45;;;;;;;;;;5064272;28;20036;-70
2023/04/25 07:37:47;;;;;;;14.65;2.92;;;;;;;;;;5079697;28;20533;-70
2023/04/25 07:40:12;;;;;;;8.88;3.20;;;;;;;;;;5069300;28;20078;-70
2023/04/25 07:42:38;;;;;;;12.45;3.42;;;;;;;;;;5061959;28;20528;-70
2023/04/25 07:45:03;;;;;;;16.55;3.80;;;;;;;;;;5046207;28;20048;-70
2023/04/25 07:47:29;;;;;;;9.30;3.10;;;;;;;;;;5048745;28;20033;-70
2023/04/25 07:49:54;;;;;;;11.32;3.70;;;;;;;;;;5047594;28;20040;-70
2023/04/25 07:52:20;;;;;;;13.52;3.78;;;;;;;;;;5048280;28;20075;-70
2023/04/25 07:54:48;;;;;;;12.63;3.90;;;;;;;;;;5079178;28;20287;-70
2023/04/25 07:57:13;;;;;;;11.75;3.55;;;;;;;;;;5048241;28;20021;-70
2023/04/25 07:59:39;;;;;;;11.82;3.03;;;;;;;;;;5040731;28;20055;-70
2023/04/25 08:02:05;;;;;;;12.52;3.83;;;;;;;;;;5047161;28;20090;-70
2023/04/25 08:04:30;;;;;;;12.68;3.22;;;;;;;;;;5042658;28;20114;-72
2023/04/25 08:06:56;;;;;;;10.65;3.40;;;;;;;;;;5045905;28;20495;-71
2023/04/25 08:09:22;;;;;;;10.63;3.13;;;;;;;;;;5074034;28;20025;-71
2023/04/25 08:11:47;;;;;;;11.68;2.90;;;;;;;;;;5040313;28;20558;-71
2023/04/25 08:14:13;;;;;;;14.02;4.07;;;;;;;;;;5044206;28;20469;-70
2023/04/25 08:16:39;;;;;;;11.80;3.90;;;;;;;;;;5033073;28;20039;-70
2023/04/25 08:19:04;;;;;;;17.52;4.03;;;;;;;;;;5027900;28;20026;-72
2023/04/25 08:21:31;;;;;;;21.70;4.25;;;;;;;;;;5026478;28;20028;-75
2023/04/25 08:23:57;;;;;;;17.08;4.15;;;;;;;;;;5027236;28;20033;-75
2023/04/25 08:26:24;;;;;;;11.57;4.47;;;;;;;;;;5027614;28;20026;-71
2023/04/25 08:28:50;;;;;;;10.23;3.45;;;;;;;;;;5024067;28;20048;-72
2023/04/25 08:31:16;;;;;;;16.02;4.35;;;;;;;;;;5017719;28;20032;-71
2023/04/25 08:33:42;;;;;;;12.15;4.55;;;;;;;;;;5027555;28;20025;-73
2023/04/25 08:36:07;;;;;;;15.95;4.85;;;;;;;;;;5037704;28;20040;-73
2023/04/25 08:38:32;;;;;;;11.85;4.30;;;;;;;;;;5046018;28;20029;-72
2023/04/25 08:41:00;;;;;;;10.35;3.50;;;;;;;;;;5043233;28;20116;-70
2023/04/25 08:43:26;;;;;;;14.93;5.03;;;;;;;;;;5008094;28;20034;-71
2023/04/25 08:45:53;;;;;;;18.85;4.90;;;;;;;;;;5026694;28;20026;-71
2023/04/25 08:48:19;;;;;;;10.10;4.25;;;;;;;;;;5026094;28;20059;-71
2023/04/25 08:50:52;;;;;;;14.98;5.28;;;;;;;;;;5024803;28;20483;-72
2023/04/25 08:53:23;;;;;;;14.75;4.97;;;;;;;;;;5024962;28;20060;-71
2023/04/25 08:55:49;;;;;;;14.38;4.60;;;;;;;;;;5009316;28;20060;-71
2023/04/25 08:58:16;;;;;;;14.70;4.80;;;;;;;;;;5034162;28;20033;-71
2023/04/25 09:00:41;;;;;;;18.15;4.72;;;;;;;;;;5030306;28;20045;-70
2023/04/25 09:03:07;;;;;;;16.27;6.47;;;;;;;;;;5024768;28;20022;-71
2023/04/25 09:05:33;;;;;;;21.75;5.40;;;;;;;;;;5023809;28;20514;-71
2023/04/25 09:07:58;;;;;;;16.15;5.82;;;;;;;;;;5006549;28;20469;-71
2023/04/25 09:10:24;;;;;;;19.23;5.60;;;;;;;;;;5006150;28;20037;-70
2023/04/25 09:13:08;;;;;;;16.55;5.03;;;;;;;;;;5023208;28;20017;-70
2023/04/25 09:15:54;;;;;;;16.42;5.63;;;;;;;;;;5031715;28;20580;-69
2023/04/25 09:18:34;;;;;;;14.55;5.82;;;;;;;;;;5033290;28;20086;-71
2023/04/25 09:21:05;;;;;;;15.05;5.20;;;;;;;;;;5040029;28;20032;-71
2023/04/25 09:23:38;;;;;;;14.50;5.40;;;;;;;;;;5039566;28;20044;-70
2023/04/25 09:26:03;;;;;;;18.50;7.13;;;;;;;;;;5044181;28;20029;-70
2023/04/25 09:28:28;;;;;;;19.13;7.22;;;;;;;;;;5044066;28;20060;-70
2023/04/25 09:30:57;;;;;;;7.22;3.85;;;;;;;;;;5043630;28;20112;-70
2023/04/25 09:33:28;;;;;;;9.13;3.90;;;;;;;;;;5041293;28;20017;-70
2023/04/25 09:36:00;;;;;;;9.23;3.83;;;;;;;;;;5050867;28;20441;-70
2023/04/25 09:38:26;;;;;;;10.82;3.55;;;;;;;;;;5042752;28;20048;-70
2023/04/25 09:40:51;;;;;;;10.80;4.38;;;;;;;;;;5045091;28;20037;-70
2023/04/25 09:43:21;;;;;;;12.25;3.70;;;;;;;;;;5045232;28;20032;-71
2023/04/25 09:45:47;;;;;;;13.90;4.00;;;;;;;;;;5045123;28;20048;-70
2023/04/25 09:48:22;;;;;;;12.57;4.90;;;;;;;;;;5078300;28;20057;-70
2023/04/25 09:51:02;;;;;;;8.65;4.00;;;;;;;;;;5042103;28;20025;-70
2023/04/25 09:53:28;;;;;;;12.30;4.28;;;;;;;;;;5033860;28;20069;-70
2023/04/25 09:55:55;;;;;;;8.68;3.88;;;;;;;;;;5039704;28;20060;-70
2023/04/25 09:58:21;;;;;;;9.48;3.83;;;;;;;;;;5038074;28;20037;-70
2023/04/25 10:00:47;;;;;;;14.27;4.45;;;;;;;;;;5040167;28;20021;-70
2023/04/25 10:03:13;;;;;;;10.82;4.32;;;;;;;;;;5045730;28;20029;-71
2023/04/25 10:05:41;;;;;;;18.60;4.47;;;;;;;;;;5041934;28;20059;-71
2023/04/25 10:08:08;;;;;;;10.52;4.30;;;;;;;;;;5041772;28;20037;-70
2023/04/25 10:10:36;;;;;;;11.23;4.50;;;;;;;;;;5042962;28;20530;-70
2023/04/25 10:13:04;;;;;;;12.25;3.80;;;;;;;;;;5043063;28;20040;-70
2023/04/25 10:15:29;;;;;;;14.70;4.57;;;;;;;;;;5043567;28;20037;-71
2023/04/25 10:17:56;;;;;;;7.53;3.55;;;;;;;;;;5045143;28;20025;-70
2023/04/25 10:20:22;;;;;;;7.25;3.20;;;;;;;;;;5050260;28;20634;-70
2023/04/25 10:22:48;;;;;;;7.25;3.50;;;;;;;;;;5049557;28;20069;-70
2023/04/25 10:25:14;;;;;;;6.90;3.42;;;;;;;;;;5045619;28;20048;-70
2023/04/25 10:27:40;;;;;;;7.35;3.40;;;;;;;;;;5044241;28;20094;-70
2023/04/25 10:30:14;;;;;;;8.60;3.08;;;;;;;;;;5046001;28;20689;-70
2023/04/25 10:32:41;;;;;;;8.32;3.75;;;;;;;;;;5077493;28;20045;-70
2023/04/25 10:35:11;;;;;;;7.28;2.95;;;;;;;;;;5053170;28;20036;-70
2023/04/25 10:37:36;;;;;;;6.60;2.70;;;;;;;;;;5068622;28;20056;-70
2023/04/25 10:40:09;;;;;;;8.55;2.78;;;;;;;;;;5067471;28;20067;-70
2023/04/25 10:42:35;;;;;;;6.30;2.90;;;;;;;;;;5068812;28;20027;-70
2023/04/25 10:45:05;;;;;;;7.35;2.97;;;;;;;;;;5069329;28;20100;-70
2023/04/25 10:47:44;;;;;;;5.65;2.50;;;;;;;;;;5068200;28;20116;-70
2023/04/25 10:50:10;;;;;;;8.75;2.90;;;;;;;;;;5067409;28;20112;-70
2023/04/25 10:52:38;;;;;;;5.78;2.45;;;;;;;;;;5067645;28;20141;-70
2023/04/25 10:55:04;;;;;;;5.60;2.20;;;;;;;;;;5068247;28;20557;-70
2023/04/25 10:57:40;;;;;;;3.88;1.88;;;;;;;;;;5068546;28;20029;-70
2023/04/25 11:00:14;;;;;;;5.53;2.08;;;;;;;;;;5060192;28;20052;-72
2023/04/25 11:02:45;;;;;;;6.65;2.22;;;;;;;;;;5061737;28;20406;-71
2023/04/25 11:05:19;;;;;;;6.43;2.60;;;;;;;;;;5063300;28;20041;-71
2023/04/25 11:07:52;;;;;;;6.85;2.30;;;;;;;;;;5025299;28;20124;-71
2023/04/25 11:10:19;;;;;;;6.13;2.50;;;;;;;;;;5042601;28;20584;-70
2023/04/25 11:12:46;;;;;;;4.68;2.08;;;;;;;;;;5041824;28;20083;-71
2023/04/25 11:15:11;;;;;;;4.07;2.10;;;;;;;;;;5046428;28;20827;-71
2023/04/25 11:17:37;;;;;;;7.93;2.97;;;;;;;;;;5047651;28;20514;-71
2023/04/25 11:20:07;;;;;;;4.40;1.67;;;;;;;;;;5044341;28;20036;-71
2023/04/25 11:22:33;;;;;;;7.85;2.03;;;;;;;;;;5048323;28;20040;-72
2023/04/25 11:25:04;;;;;;;10.45;2.33;;;;;;;;;;5048182;28;20413;-72
2023/04/25 11:27:30;;;;;;;7.85;1.95;;;;;;;;;;5040515;28;20494;-71
2023/04/25 11:29:55;;;;;;;4.80;2.13;;;;;;;;;;5046555;28;20072;-71
2023/04/25 11:32:20;;;;;;;6.38;2.25;;;;;;;;;;5048270;28;20033;-71
2023/04/25 11:34:46;;;;;;;8.82;2.83;;;;;;;;;;5052351;28;20028;-71
2023/04/25 11:37:12;;;;;;;9.63;2.60;;;;;;;;;;5069041;28;20079;-71
2023/04/25 11:39:38;;;;;;;6.82;2.65;;;;;;;;;;5063340;28;20539;-71
2023/04/25 11:42:05;;;;;;;6.80;3.08;;;;;;;;;;5045638;28;20032;-75
2023/04/25 11:44:31;;;;;;;10.23;3.05;;;;;;;;;;5044644;28;20048;-71
2023/04/25 11:46:56;;;;;;;9.35;3.15;;;;;;;;;;5046763;28;20033;-71
2023/04/25 11:49:21;;;;;;;10.95;3.33;;;;;;;;;;5044766;28;20040;-71
2023/04/25 11:51:48;;;;;;;6.95;2.70;;;;;;;;;;5047837;28;20020;-71
2023/04/25 11:54:14;;;;;;;10.60;2.58;;;;;;;;;;5039141;28;20025;-72
2023/04/25 11:56:44;;;;;;;8.35;2.20;;;;;;;;;;5045047;28;20041;-72
2023/04/25 11:59:09;;;;;;;6.50;2.33;;;;;;;;;;5043207;28;20063;-71
2023/04/25 12:01:40;;;;;;;9.13;2.00;;;;;;;;;;5045378;28;20046;-72
2023/04/25 12:04:17;;;;;;;8.27;2.08;;;;;;;;;;5047046;28;20040;-71
2023/04/25 12:06:47;;;;;;;5.38;2.10;;;;;;;;;;5046688;28;20055;-71
2023/04/25 12:09:15;;;;;;;4.53;1.83;;;;;;;;;;5046295;28;20028;-72
2023/04/25 12:11:49;;;;;;;5.97;2.28;;;;;;;;;;5045972;28;20033;-71
2023/04/25 12:14:27;;;;;;;7.28;2.83;;;;;;;;;;5042271;28;20517;-70
2023/04/25 12:16:58;;;;;;;4.95;2.50;;;;;;;;;;5007726;28;20855;-70
2023/04/25 12:19:23;;;;;;;6.70;2.70;;;;;;;;;;4987438;28;20042;-71
2023/04/25 12:21:50;;;;;;;9.60;3.30;;;;;;;;;;5005941;28;20388;-71
2023/04/25 12:24:25;;;;;;;7.30;3.17;;;;;;;;;;5022876;28;20140;-71
2023/04/25 12:27:03;;;;;;;8.20;3.33;;;;;;;;;;5023751;28;20040;-72
2023/04/25 12:29:31;;;;;;;4.57;2.95;;;;;;;;;;5025327;28;20065;-72
2023/04/25 12:31:56;;;;;;;7.75;3.40;;;;;;;;;;5024865;28;20039;-73
2023/04/25 12:34:23;;;;;;;7.93;2.83;;;;;;;;;;5040973;28;20038;-72
2023/04/25 12:36:50;;;;;;;12.10;3.75;;;;;;;;;;5043019;28;20116;-74
2023/04/25 12:39:20;;;;;;;8.07;4.05;;;;;;;;;;5026842;28;20626;-72
2023/04/25 12:41:47;;;;;;;7.20;3.40;;;;;;;;;;5013021;28;20072;-71
2023/04/25 12:44:12;;;;;;;10.60;3.90;;;;;;;;;;5018461;28;20037;-72
2023/04/25 12:46:39;;;;;;;10.35;3.88;;;;;;;;;;5024581;28;20057;-72
2023/04/25 12:49:06;;;;;;;7.85;3.33;;;;;;;;;;5026514;28;20128;-72
2023/04/25 12:51:32;;;;;;;7.75;3.33;;;;;;;;;;5024450;28;20409;-72
2023/04/25 12:53:59;;;;;;;7.50;3.10;;;;;;;;;;5024458;28;20116;-72
2023/04/25 12:56:25;;;;;;;5.95;2.15;;;;;;;;;;5005874;28;20038;-70
2023/04/25 12:58:51;;;;;;;6.85;2.50;;;;;;;;;;5023599;28;20048;-71
2023/04/25 13:01:17;;;;;;;6.10;2.72;;;;;;;;;;5027666;28;20041;-71
2023/04/25 13:03:43;;;;;;;7.95;2.70;;;;;;;;;;5016282;28;20022;-71
2023/04/25 13:06:08;;;;;;;6.20;2.67;;;;;;;;;;5034377;28;20125;-71
2023/04/25 13:08:34;;;;;;;9.57;2.40;;;;;;;;;;5026123;28;20060;-70
2023/04/25 13:11:00;;;;;;;4.32;1.95;;;;;;;;;;5024715;28;20510;-71
2023/04/25 13:13:27;;;;;;;9.00;2.55;;;;;;;;;;5024537;28;20083;-71
2023/04/25 13:15:52;;;;;;;8.63;2.20;;;;;;;;;;5034757;28;20056;-72
2023/04/25 13:18:19;;;;;;;5.65;2.60;;;;;;;;;;5044481;28;20059;-71
2023/04/25 13:20:46;;;;;;;5.88;2.60;;;;;;;;;;5043868;28;20037;-71
2023/04/25 13:23:11;;;;;;;3.55;1.70;;;;;;;;;;5044260;28;20044;-71
2023/04/25 13:25:36;;;;;;;4.78;2.13;;;;;;;;;;5043486;28;20036;-71
2023/04/25 13:28:02;;;;;;;10.60;3.03;;;;;;;;;;5043792;28;20534;-71
2023/04/25 13:30:28;;;;;;;6.18;2.10;;;;;;;;;;5042732;28;20098;-71
2023/04/25 13:32:55;;;;;;;6.35;2.45;;;;;;;;;;5041462;28;20041;-71
2023/04/25 13:35:21;;;;;;;3.83;1.65;;;;;;;;;;5041958;28;20049;-71
2023/04/25 13:37:46;;;;;;;6.50;2.17;;;;;;;;;;5041986;28;20759;-73
2023/04/25 13:40:12;;;;;;;5.07;2.08;;;;;;;;;;5043509;28;20036;-72
2023/04/25 13:42:38;;;;;;;6.45;2.40;;;;;;;;;;5043717;28;20410;-71
2023/04/25 13:45:04;;;;;;;8.35;2.78;;;;;;;;;;5038676;28;20025;-71
2023/04/25 13:47:30;;;;;;;7.50;3.08;;;;;;;;;;5037233;28;20036;-71
2023/04/25 13:49:55;;;;;;;6.22;3.42;;;;;;;;;;5043492;28;20051;-71
2023/04/25 13:52:21;;;;;;;7.97;3.50;;;;;;;;;;5043674;28;20812;-72
2023/04/25 13:54:46;;;;;;;5.57;2.80;;;;;;;;;;5039796;28;20568;-71
2023/04/25 13:57:12;;;;;;;5.32;2.53;;;;;;;;;;5042584;28;20061;-71
2023/04/25 13:59:39;;;;;;;11.13;2.90;;;;;;;;;;5043124;28;20037;-71
2023/04/25 14:02:04;;;;;;;5.60;2.50;;;;;;;;;;5043731;28;20068;-71
2023/04/25 14:04:30;;;;;;;5.60;2.15;;;;;;;;;;5042537;28;20928;-71
2023/04/25 14:06:56;;;;;;;4.18;1.73;;;;;;;;;;5042559;28;20574;-71
2023/04/25 14:09:25;;;;;;;4.40;1.95;;;;;;;;;;5047439;28;20029;-71
2023/04/25 14:11:52;;;;;;;3.90;1.45;;;;;;;;;;5044591;28;20049;-71
2023/04/25 14:14:17;;;;;;;4.20;1.60;;;;;;;;;;5043621;28;20047;-72
2023/04/25 14:16:43;;;;;;;5.13;2.08;;;;;;;;;;5047617;28;20049;-71
2023/04/25 14:19:08;;;;;;;5.32;2.20;;;;;;;;;;5046561;28;20087;-71
2023/04/25 14:21:33;;;;;;;6.97;2.35;;;;;;;;;;5048765;28;20032;-71
2023/04/25 14:23:59;;;;;;;5.15;1.50;;;;;;;;;;5050486;28;20177;-71
2023/04/25 14:26:24;;;;;;;4.00;1.83;;;;;;;;;;5061013;28;20021;-71
2023/04/25 14:28:51;;;;;;;5.13;1.38;;;;;;;;;;5050365;28;20108;-71
2023/04/25 14:31:16;;;;;;;3.95;1.40;;;;;;;;;;5049816;28;20040;-71